Time;durP1;ratioP1;P1;durP2;ratioP2;P2;SDS_P1;SDS_P2;PMS_P1;PMS_P2;Temp;Humidity;BMP_temperature;BMP_pressure;BME280_temperature;BME280_humidity;BME280_pressure;Samples;Min_cycle;Max_cycle;Signal;HPM_P1;HPM_P2
2022/08/01 00:00:59;;;;;;;5.13;4.63;;;21.00;99.90;;;;;;5068417;28;20412;-79
2022/08/01 00:03:43;;;;;;;4.50;4.17;;;21.00;99.90;;;;;;5105325;28;20466;-80
2022/08/01 00:06:28;;;;;;;4.60;4.10;;;21.00;99.90;;;;;;5120883;28;20397;-82
2022/08/01 00:09:18;;;;;;;4.23;3.93;;;21.20;99.90;;;;;;5119446;28;20391;-79
2022/08/01 00:12:04;;;;;;;4.10;3.80;;;21.30;99.90;;;;;;5103860;28;20418;-77
2022/08/01 00:14:49;;;;;;;4.37;3.97;;;21.30;99.90;;;;;;5106414;28;20405;-81
2022/08/01 00:17:33;;;;;;;6.20;4.23;;;21.30;99.90;;;;;;5125474;28;20450;-81
2022/08/01 00:20:18;;;;;;;4.50;4.07;;;21.20;99.90;;;;;;5124990;28;20471;-79
2022/08/01 00:23:03;;;;;;;8.60;5.00;;;21.20;99.90;;;;;;5110210;28;20784;-80
2022/08/01 00:25:47;;;;;;;5.77;5.37;;;21.10;99.90;;;;;;5095212;28;20399;-81
2022/08/01 00:28:32;;;;;;;6.80;5.20;;;21.10;99.90;;;;;;5125910;28;20542;-81
2022/08/01 00:31:17;;;;;;;6.17;5.60;;;21.20;99.90;;;;;;5126160;28;20409;-82
2022/08/01 00:34:01;;;;;;;5.70;5.27;;;21.10;99.90;;;;;;5125255;28;20493;-81
2022/08/01 00:36:46;;;;;;;4.70;4.37;;;21.20;99.90;;;;;;5125114;28;20474;-81
2022/08/01 00:39:32;;;;;;;5.10;4.63;;;21.20;99.90;;;;;;5125504;28;20425;-82
2022/08/01 00:42:17;;;;;;;4.97;4.57;;;21.30;99.90;;;;;;5126363;28;20444;-81
2022/08/01 00:45:01;;;;;;;4.87;4.40;;;21.30;99.90;;;;;;5125560;28;20391;-81
2022/08/01 00:47:45;;;;;;;4.77;4.37;;;21.30;99.90;;;;;;5125949;28;20399;-82
2022/08/01 00:50:30;;;;;;;4.93;3.90;;;21.30;99.90;;;;;;5125989;28;20403;-81
2022/08/01 00:53:14;;;;;;;4.80;4.43;;;21.30;99.90;;;;;;5126060;28;20391;-82
2022/08/01 00:55:59;;;;;;;4.57;4.17;;;21.30;99.90;;;;;;5125336;28;20461;-82
2022/08/01 00:58:44;;;;;;;5.37;4.80;;;21.40;99.90;;;;;;5125593;28;20406;-81
2022/08/01 01:01:28;;;;;;;5.10;4.70;;;21.40;99.90;;;;;;5125320;28;20387;-81
2022/08/01 01:04:13;;;;;;;4.93;4.43;;;21.40;99.90;;;;;;5126324;28;20395;-81
2022/08/01 01:07:09;;;;;;;6.90;4.40;;;21.40;99.90;;;;;;5124984;28;20750;-82
2022/08/01 01:10:04;;;;;;;6.33;4.00;;;21.40;99.90;;;;;;5125368;28;20395;-82
2022/08/01 01:13:04;;;;;;;5.10;4.47;;;21.40;99.90;;;;;;5125577;28;20786;-82
2022/08/01 01:16:01;;;;;;;6.60;4.03;;;21.40;99.90;;;;;;5125901;28;20441;-82
2022/08/01 01:18:51;;;;;;;5.20;4.60;;;21.30;99.90;;;;;;5125972;28;20765;-81
2022/08/01 01:21:56;;;;;;;4.67;4.27;;;21.30;99.90;;;;;;5126244;28;20456;-79
2022/08/01 01:25:08;;;;;;;4.73;4.43;;;21.30;99.90;;;;;;5130120;28;20391;-79
2022/08/01 01:28:30;;;;;;;4.33;4.03;;;21.30;99.90;;;;;;5116743;28;20843;-81
2022/08/01 01:31:17;;;;;;;7.40;4.33;;;21.30;99.90;;;;;;5124925;28;20414;-80
2022/08/01 01:34:04;;;;;;;4.30;4.00;;;21.30;99.90;;;;;;5125111;28;20406;-81
2022/08/01 01:36:50;;;;;;;4.93;4.07;;;21.20;99.90;;;;;;5124252;28;20461;-82
2022/08/01 01:39:36;;;;;;;6.57;4.60;;;21.20;99.90;;;;;;5129907;28;20383;-80
2022/08/01 01:42:22;;;;;;;5.87;4.20;;;21.30;99.90;;;;;;5127944;28;20415;-81
2022/08/01 01:45:08;;;;;;;4.40;4.10;;;21.30;99.90;;;;;;5125011;28;20898;-81
2022/08/01 01:47:53;;;;;;;5.20;4.80;;;21.20;99.90;;;;;;5124589;28;20398;-81
2022/08/01 01:50:38;;;;;;;5.53;5.03;;;21.20;99.90;;;;;;5124625;28;20391;-81
2022/08/01 01:53:24;;;;;;;4.33;4.03;;;21.20;99.90;;;;;;5125069;28;20383;-81
2022/08/01 01:56:09;;;;;;;6.00;5.40;;;21.30;99.90;;;;;;5125212;28;20478;-82
2022/08/01 01:58:57;;;;;;;6.50;4.00;;;21.20;99.90;;;;;;5128219;28;20383;-79
2022/08/01 02:01:43;;;;;;;4.77;4.23;;;21.20;99.90;;;;;;5128855;28;20470;-79
2022/08/01 02:04:30;;;;;;;4.67;4.37;;;21.10;99.90;;;;;;5128977;28;20383;-78
2022/08/01 02:07:20;;;;;;;5.20;4.80;;;21.20;99.90;;;;;;5128893;28;20383;-79
2022/08/01 02:10:06;;;;;;;5.17;4.67;;;21.20;99.90;;;;;;5129183;28;20383;-79
2022/08/01 02:12:51;;;;;;;6.93;4.60;;;21.20;99.90;;;;;;5128405;28;20390;-80
2022/08/01 02:15:38;;;;;;;5.73;5.30;;;21.10;99.90;;;;;;5128116;28;20453;-81
2022/08/01 02:18:22;;;;;;;4.30;4.00;;;21.10;99.90;;;;;;5124163;28;20469;-81
2022/08/01 02:21:12;;;;;;;5.93;4.20;;;21.10;99.90;;;;;;5123953;28;20376;-82
2022/08/01 02:24:02;;;;;;;5.87;5.40;;;21.00;99.90;;;;;;5125028;28;20517;-81
2022/08/01 02:26:52;;;;;;;4.33;4.03;;;21.00;99.90;;;;;;5124635;28;20407;-80
2022/08/01 02:29:45;;;;;;;4.97;4.57;;;20.20;99.90;;;;;;5124725;28;20391;-81
2022/08/01 02:32:38;;;;;;;5.53;4.90;;;20.00;99.90;;;;;;5123943;28;20441;-81
2022/08/01 02:35:28;;;;;;;5.13;4.73;;;19.70;99.90;;;;;;5124278;28;20379;-79
2022/08/01 02:38:14;;;;;;;7.43;5.33;;;19.60;99.90;;;;;;5123410;28;20405;-80
2022/08/01 02:41:05;;;;;;;5.70;4.73;;;19.50;99.90;;;;;;5123503;28;20375;-81
2022/08/01 02:43:52;;;;;;;7.03;6.00;;;19.40;99.90;;;;;;5123952;28;20371;-81
2022/08/01 02:46:43;;;;;;;5.40;4.90;;;19.20;99.90;;;;;;5124165;28;20406;-81
2022/08/01 02:49:32;;;;;;;5.80;5.27;;;19.20;99.90;;;;;;5123674;28;20384;-81
2022/08/01 02:52:19;;;;;;;5.80;5.30;;;19.30;99.90;;;;;;5124149;28;20380;-80
2022/08/01 02:55:05;;;;;;;5.20;4.80;;;19.30;99.90;;;;;;5124220;28;20371;-81
2022/08/01 02:57:52;;;;;;;5.30;4.80;;;19.40;99.90;;;;;;5124133;28;20577;-81
2022/08/01 03:00:37;;;;;;;6.53;5.70;;;19.40;99.90;;;;;;5124301;28;20379;-82
2022/08/01 03:03:23;;;;;;;6.57;5.80;;;19.40;99.90;;;;;;5124010;28;20410;-81
2022/08/01 03:06:08;;;;;;;6.80;6.10;;;19.50;99.90;;;;;;5124173;28;20463;-81
2022/08/01 03:08:54;;;;;;;5.83;5.33;;;19.60;99.90;;;;;;5123521;28;20965;-82
2022/08/01 03:11:43;;;;;;;6.53;5.30;;;19.70;99.90;;;;;;5123304;28;20384;-81
2022/08/01 03:14:30;;;;;;;5.53;4.90;;;19.80;99.90;;;;;;5124251;28;20449;-81
2022/08/01 03:17:18;;;;;;;5.50;5.10;;;20.00;99.90;;;;;;5124397;28;20839;-81
2022/08/01 03:20:03;;;;;;;6.10;5.60;;;20.10;99.90;;;;;;5123141;28;20430;-81
2022/08/01 03:22:51;;;;;;;5.57;5.13;;;20.10;99.90;;;;;;5121684;28;20461;-82
2022/08/01 03:25:39;;;;;;;4.77;4.37;;;20.10;99.90;;;;;;5124412;28;20379;-82
2022/08/01 03:28:25;;;;;;;5.43;4.93;;;19.60;99.90;;;;;;5124075;28;20388;-81
2022/08/01 03:31:12;;;;;;;7.40;5.27;;;19.00;99.90;;;;;;5129425;28;20390;-80
2022/08/01 03:33:56;;;;;;;10.77;5.63;;;18.50;99.90;;;;;;5123467;28;20382;-81
2022/08/01 03:36:52;;;;;;;6.33;5.73;;;18.60;99.90;;;;;;5122850;28;20473;-80
2022/08/01 03:39:46;;;;;;;5.87;5.37;;;18.60;99.90;;;;;;5123156;28;20379;-81
2022/08/01 03:42:36;;;;;;;5.80;5.30;;;18.60;99.90;;;;;;5123177;28;20740;-81
2022/08/01 03:45:24;;;;;;;6.10;5.47;;;18.60;99.90;;;;;;5123118;28;20483;-81
2022/08/01 03:48:13;;;;;;;6.27;5.67;;;18.50;99.90;;;;;;5118265;28;20411;-81
2022/08/01 03:50:59;;;;;;;6.90;5.53;;;18.50;99.90;;;;;;5099475;28;20380;-81
2022/08/01 03:53:46;;;;;;;6.40;5.90;;;18.30;99.90;;;;;;5081844;28;20407;-81
2022/08/01 03:56:32;;;;;;;11.63;5.97;;;18.30;99.90;;;;;;5082375;28;20488;-81
2022/08/01 03:59:17;;;;;;;6.37;5.63;;;18.30;99.90;;;;;;5082141;28;20401;-81
2022/08/01 04:02:02;;;;;;;6.23;5.73;;;18.10;99.90;;;;;;5081879;28;20511;-81
2022/08/01 04:04:47;;;;;;;6.60;6.00;;;18.30;99.90;;;;;;5081888;28;20393;-82
2022/08/01 04:07:35;;;;;;;6.73;5.43;;;18.40;99.90;;;;;;5081971;28;20389;-80
2022/08/01 04:10:19;;;;;;;7.03;6.33;;;18.40;99.90;;;;;;5067359;28;20416;-80
2022/08/01 04:13:04;;;;;;;8.13;7.17;;;18.40;99.90;;;;;;5082420;28;20745;-80
2022/08/01 04:15:48;;;;;;;6.33;5.90;;;18.10;99.90;;;;;;5066866;28;20401;-81
2022/08/01 04:18:33;;;;;;;7.77;6.07;;;18.20;99.90;;;;;;5082650;28;20473;-81
2022/08/01 04:21:22;;;;;;;9.87;6.50;;;18.30;99.90;;;;;;5083086;28;20405;-81
2022/08/01 04:24:12;;;;;;;7.30;6.57;;;18.20;99.90;;;;;;5083315;28;20377;-80
2022/08/01 04:27:00;;;;;;;6.53;6.00;;;18.20;99.90;;;;;;5083392;28;20393;-81
2022/08/01 04:29:46;;;;;;;7.10;6.40;;;18.30;99.90;;;;;;5083540;28;20472;-81
2022/08/01 04:32:35;;;;;;;9.27;6.07;;;18.50;99.90;;;;;;5075049;28;20472;-81
2022/08/01 04:35:21;;;;;;;6.00;5.50;;;18.20;99.90;;;;;;5100902;28;20443;-81
2022/08/01 04:38:06;;;;;;;6.57;5.90;;;18.10;99.90;;;;;;5100979;28;20467;-81
2022/08/01 04:40:52;;;;;;;6.43;5.93;;;18.10;99.90;;;;;;5090776;28;20479;-81
2022/08/01 04:43:37;;;;;;;6.40;5.97;;;18.20;99.90;;;;;;5084504;28;20429;-78
2022/08/01 04:46:22;;;;;;;6.53;5.83;;;18.30;99.90;;;;;;5104580;28;20497;-79
2022/08/01 04:49:09;;;;;;;6.60;6.10;;;18.30;99.90;;;;;;5105186;28;20537;-79
2022/08/01 04:51:59;;;;;;;6.43;5.90;;;18.30;99.90;;;;;;5105313;28;20438;-79
2022/08/01 04:54:44;;;;;;;6.77;6.17;;;18.60;99.90;;;;;;5105181;28;20454;-79
2022/08/01 04:57:30;;;;;;;8.70;6.47;;;18.80;99.90;;;;;;5106498;28;20467;-79
2022/08/01 05:00:16;;;;;;;6.63;6.13;;;19.10;99.90;;;;;;5106506;28;20468;-78
2022/08/01 05:03:00;;;;;;;7.07;6.30;;;19.30;99.90;;;;;;5107984;28;20435;-78
2022/08/01 05:05:45;;;;;;;8.70;5.60;;;19.50;99.90;;;;;;5110928;28;20399;-79
2022/08/01 05:08:30;;;;;;;6.20;5.60;;;19.40;99.90;;;;;;5107841;28;20434;-80
2022/08/01 05:11:14;;;;;;;5.87;5.47;;;19.20;99.90;;;;;;5109716;28;20435;-80
2022/08/01 05:14:00;;;;;;;6.50;6.00;;;19.80;99.90;;;;;;5094684;28;20450;-80
2022/08/01 05:16:46;;;;;;;5.40;4.93;;;19.80;99.90;;;;;;5109029;28;20474;-80
2022/08/01 05:19:32;;;;;;;5.63;5.23;;;20.40;99.90;;;;;;5110194;28;20443;-78
2022/08/01 05:22:17;;;;;;;6.60;6.00;;;20.50;99.90;;;;;;5081798;28;20538;-78
2022/08/01 05:25:01;;;;;;;5.23;4.83;;;20.20;99.90;;;;;;5107732;28;20457;-79
2022/08/01 05:27:46;;;;;;;5.20;4.70;;;20.30;99.90;;;;;;5107219;28;20451;-78
2022/08/01 05:30:32;;;;;;;5.13;4.73;;;20.80;99.90;;;;;;5105830;28;20431;-78
2022/08/01 05:33:17;;;;;;;5.97;5.00;;;20.90;99.90;;;;;;5107698;28;20426;-78
2022/08/01 05:36:01;;;;;;;7.20;4.90;;;20.30;99.90;;;;;;5106173;28;20467;-78
2022/08/01 05:38:45;;;;;;;7.83;7.03;;;20.70;99.90;;;;;;5102780;28;20525;-77
2022/08/01 05:41:30;;;;;;;5.87;5.47;;;20.60;99.90;;;;;;5094557;28;20435;-77
2022/08/01 05:44:15;;;;;;;5.87;5.40;;;20.10;99.90;;;;;;5114575;28;20431;-77
2022/08/01 05:46:59;;;;;;;9.93;6.47;;;20.00;99.90;;;;;;5128099;28;20425;-78
2022/08/01 05:49:44;;;;;;;7.17;6.47;;;20.00;99.90;;;;;;5128308;28;20411;-77
2022/08/01 05:52:30;;;;;;;6.10;5.50;;;20.30;99.90;;;;;;5101928;28;20440;-77
2022/08/01 05:55:15;;;;;;;11.50;7.23;;;20.30;99.90;;;;;;5092207;28;20451;-79
2022/08/01 05:57:59;;;;;;;10.90;5.73;;;19.80;99.90;;;;;;5091679;28;20600;-78
2022/08/01 06:00:45;;;;;;;6.70;6.10;;;20.40;99.90;;;;;;5112353;28;20465;-78
2022/08/01 06:03:31;;;;;;;8.20;6.57;;;20.30;99.90;;;;;;5092239;28;20412;-80
2022/08/01 06:06:16;;;;;;;6.03;5.43;;;20.30;99.90;;;;;;5089264;28;20578;-76
2022/08/01 06:09:00;;;;;;;6.53;5.97;;;20.50;99.90;;;;;;5111063;28;20447;-78
2022/08/01 06:11:45;;;;;;;7.40;6.80;;;20.80;99.90;;;;;;5107755;28;20415;-78
2022/08/01 06:14:30;;;;;;;5.80;5.20;;;20.30;99.90;;;;;;5102822;28;20490;-78
2022/08/01 06:17:14;;;;;;;6.37;5.30;;;20.50;99.90;;;;;;5110005;28;20569;-78
2022/08/01 06:19:59;;;;;;;6.50;5.90;;;20.30;99.90;;;;;;5106967;28;20428;-79
2022/08/01 06:22:44;;;;;;;6.20;5.63;;;20.60;99.90;;;;;;5105365;28;21066;-80
2022/08/01 06:25:28;;;;;;;6.53;6.00;;;20.70;99.90;;;;;;5103726;28;20435;-80
2022/08/01 06:28:13;;;;;;;10.37;5.90;;;20.70;99.90;;;;;;5099701;28;20423;-80
2022/08/01 06:30:58;;;;;;;5.40;4.90;;;20.20;99.90;;;;;;5101577;28;20471;-81
2022/08/01 06:33:43;;;;;;;4.50;4.10;;;20.40;99.90;;;;;;5094889;28;20427;-80
2022/08/01 06:36:27;;;;;;;5.93;5.50;;;20.60;99.90;;;;;;5111105;28;20482;-81
2022/08/01 06:39:11;;;;;;;5.03;4.63;;;20.70;99.90;;;;;;5117523;28;20415;-80
2022/08/01 06:41:56;;;;;;;11.50;5.33;;;21.10;99.90;;;;;;5120148;28;20422;-79
2022/08/01 06:44:40;;;;;;;6.63;5.83;;;20.90;99.90;;;;;;5079231;28;20535;-79
2022/08/01 06:47:25;;;;;;;5.40;4.90;;;21.00;99.90;;;;;;5077750;28;20486;-81
2022/08/01 06:50:11;;;;;;;6.13;5.63;;;20.70;99.90;;;;;;5073714;28;20452;-79
2022/08/01 06:52:55;;;;;;;4.63;4.33;;;20.60;99.90;;;;;;5073459;28;20483;-82
2022/08/01 06:55:40;;;;;;;6.80;5.87;;;20.60;99.90;;;;;;5062530;28;20440;-81
2022/08/01 06:58:24;;;;;;;5.80;5.40;;;20.60;99.90;;;;;;5072302;28;20933;-81
2022/08/01 07:01:09;;;;;;;5.77;5.27;;;20.70;99.90;;;;;;5073092;28;20472;-81
2022/08/01 07:03:54;;;;;;;5.67;4.67;;;20.80;99.90;;;;;;5071762;28;20484;-80
2022/08/01 07:06:38;;;;;;;4.93;4.63;;;21.10;99.90;;;;;;5074824;28;21172;-82
2022/08/01 07:09:26;;;;;;;10.17;5.20;;;21.20;99.90;;;;;;5072891;28;20447;-81
2022/08/01 07:12:11;;;;;;;5.43;4.53;;;21.10;99.90;;;;;;5072042;28;20498;-81
2022/08/01 07:14:56;;;;;;;5.20;4.70;;;21.30;99.90;;;;;;5090047;27;20501;-81
2022/08/01 07:17:42;;;;;;;4.53;4.13;;;21.40;99.90;;;;;;5117202;27;20459;-81
2022/08/01 07:20:27;;;;;;;5.50;5.10;;;21.30;99.90;;;;;;5116285;27;20637;-80
2022/08/01 07:23:12;;;;;;;4.83;4.43;;;21.70;99.90;;;;;;5104033;27;20577;-82
2022/08/01 07:25:56;;;;;;;4.40;4.00;;;21.80;99.90;;;;;;5100525;28;20423;-81
2022/08/01 07:28:42;;;;;;;4.20;3.80;;;21.70;99.90;;;;;;5100890;27;20431;-81
2022/08/01 07:31:26;;;;;;;6.47;4.30;;;21.60;99.90;;;;;;5111767;28;20414;-82
2022/08/01 07:34:11;;;;;;;4.07;3.77;;;21.70;99.90;;;;;;5099864;27;20410;-80
2022/08/01 07:36:55;;;;;;;8.17;4.87;;;21.60;99.90;;;;;;5102370;28;21027;-80
2022/08/01 07:39:40;;;;;;;7.27;4.60;;;21.90;99.90;;;;;;5096073;28;20466;-81
2022/08/01 07:42:24;;;;;;;6.57;4.80;;;21.90;99.90;;;;;;5095648;28;20427;-81
2022/08/01 07:45:09;;;;;;;9.23;4.20;;;21.90;99.90;;;;;;5081229;28;20431;-81
2022/08/01 07:47:53;;;;;;;3.90;3.50;;;22.00;99.90;;;;;;5098661;28;20423;-82
2022/08/01 07:50:38;;;;;;;4.17;3.77;;;22.30;99.90;;;;;;5101043;28;20476;-81
2022/08/01 07:53:23;;;;;;;4.00;3.40;;;22.40;99.90;;;;;;5107921;28;20553;-81
2022/08/01 07:56:07;;;;;;;5.63;4.50;;;22.70;99.90;;;;;;5098413;28;20570;-81
2022/08/01 07:58:52;;;;;;;3.90;3.30;;;23.20;99.90;;;;;;5103038;28;20448;-80
2022/08/01 08:01:36;;;;;;;3.67;3.37;;;23.30;99.90;;;;;;5098548;28;20473;-81
2022/08/01 08:04:20;;;;;;;4.17;3.87;;;23.50;99.90;;;;;;5095710;28;20431;-80
2022/08/01 08:07:05;;;;;;;4.33;3.87;;;23.50;99.90;;;;;;5107282;28;20471;-80
2022/08/01 08:09:49;;;;;;;4.00;3.60;;;23.40;99.90;;;;;;5079512;28;20482;-80
2022/08/01 08:12:34;;;;;;;3.77;3.47;;;23.60;99.90;;;;;;5095495;28;20494;-80
2022/08/01 08:15:18;;;;;;;6.53;3.90;;;23.70;99.90;;;;;;5098477;28;20439;-80
2022/08/01 08:18:04;;;;;;;4.63;3.57;;;23.90;99.90;;;;;;5100872;28;20450;-80
2022/08/01 08:20:49;;;;;;;5.40;3.40;;;24.00;99.90;;;;;;5092428;28;20520;-80
2022/08/01 08:26:34;;;;;;;3.90;3.60;;;24.10;99.90;;;;;;5102960;28;20777;-80
2022/08/01 08:29:19;;;;;;;3.37;3.07;;;24.10;99.90;;;;;;5098643;28;20912;-79
2022/08/01 08:32:04;;;;;;;3.80;3.50;;;24.10;99.90;;;;;;5087439;28;20427;-78
2022/08/01 08:34:48;;;;;;;4.40;4.00;;;24.20;99.90;;;;;;5093478;28;20435;-82
2022/08/01 08:37:35;;;;;;;3.43;3.10;;;24.20;99.90;;;;;;5101471;28;20495;-81
2022/08/01 08:40:23;;;;;;;4.20;3.87;;;24.30;99.90;;;;;;5085747;28;20428;-81
2022/08/01 08:43:08;;;;;;;3.67;3.37;;;24.30;99.90;;;;;;5096950;28;20439;-83
2022/08/01 08:45:53;;;;;;;3.93;3.53;;;24.30;99.90;;;;;;5097424;28;20423;-81
2022/08/01 08:48:40;;;;;;;3.77;3.47;;;24.50;99.90;;;;;;5104779;28;20422;-81
2022/08/01 08:51:27;;;;;;;3.73;3.43;;;24.50;99.90;;;;;;5101554;28;20438;-80
2022/08/01 08:54:13;;;;;;;3.30;3.00;;;24.60;99.90;;;;;;5099784;28;20435;-78
2022/08/01 08:56:59;;;;;;;3.00;2.70;;;24.70;99.90;;;;;;5095624;28;20518;-78
2022/08/01 08:59:46;;;;;;;3.50;3.30;;;24.90;99.90;;;;;;5101526;28;20534;-78
2022/08/01 09:02:31;;;;;;;3.07;2.87;;;24.90;99.90;;;;;;5105666;28;20489;-78
2022/08/01 09:05:16;;;;;;;3.20;3.00;;;24.60;99.90;;;;;;5102663;28;20430;-80
2022/08/01 09:08:00;;;;;;;3.10;2.90;;;24.70;99.90;;;;;;5100350;28;20419;-78
2022/08/01 09:10:45;;;;;;;5.97;3.53;;;24.90;99.90;;;;;;5094919;28;20728;-81
2022/08/01 09:13:29;;;;;;;3.63;3.33;;;24.80;99.90;;;;;;5072259;28;20507;-80
2022/08/01 09:16:17;;;;;;;23.10;4.67;;;25.00;99.90;;;;;;5078453;28;20459;-79
2022/08/01 09:19:15;;;;;;;3.03;2.70;;;25.00;99.90;;;;;;5074919;28;20452;-79
2022/08/01 09:22:03;;;;;;;3.53;3.20;;;25.00;99.90;;;;;;5082168;28;20428;-82
2022/08/01 09:25:07;;;;;;;3.10;2.90;;;25.10;99.90;;;;;;5088467;28;20423;-81
2022/08/01 09:28:03;;;;;;;2.80;2.60;;;25.10;99.90;;;;;;5101410;28;20489;-82
2022/08/01 09:30:48;;;;;;;4.53;3.33;;;25.20;99.90;;;;;;5077083;28;20564;-81
2022/08/01 09:33:49;;;;;;;3.17;2.97;;;25.30;99.90;;;;;;5086387;28;20470;-82
2022/08/01 09:36:55;;;;;;;3.27;2.97;;;25.10;99.90;;;;;;5106703;28;20477;-82
2022/08/01 09:39:43;;;;;;;3.13;2.87;;;24.90;99.90;;;;;;5121090;27;20429;-80
2022/08/01 09:42:28;;;;;;;3.30;3.00;;;24.80;99.90;;;;;;5104709;27;20442;-83
2022/08/01 09:45:32;;;;;;;3.00;2.80;;;24.70;99.90;;;;;;5102449;28;20728;-81
2022/08/01 09:48:18;;;;;;;3.63;2.83;;;24.40;99.90;;;;;;5121706;27;20525;-81
2022/08/01 09:51:04;;;;;;;5.50;4.50;;;24.30;99.90;;;;;;5119514;27;20426;-81
2022/08/01 09:53:49;;;;;;;5.93;3.57;;;24.10;99.90;;;;;;5078731;28;20483;-80
2022/08/01 09:56:42;;;;;;;3.70;3.40;;;24.00;99.90;;;;;;5116013;27;20486;-79
2022/08/01 09:59:37;;;;;;;5.80;3.20;;;23.90;99.90;;;;;;5106795;28;20445;-79
2022/08/01 10:02:40;;;;;;;3.60;3.30;;;23.90;99.90;;;;;;5122626;27;20415;-81
2022/08/01 10:05:34;;;;;;;4.33;3.50;;;24.00;99.90;;;;;;5124105;27;20434;-79
2022/08/01 10:08:19;;;;;;;4.70;4.10;;;24.30;99.90;;;;;;5107332;28;20813;-78
2022/08/01 10:11:12;;;;;;;5.13;3.73;;;24.50;99.90;;;;;;5121573;27;20500;-79
2022/08/01 10:13:58;;;;;;;7.23;3.23;;;24.60;99.90;;;;;;5106984;27;20855;-79
2022/08/01 10:16:43;;;;;;;3.00;2.80;;;24.90;99.90;;;;;;5103014;27;20584;-78
2022/08/01 10:19:28;;;;;;;2.97;2.77;;;25.10;99.90;;;;;;5125716;27;20418;-78
2022/08/01 10:22:17;;;;;;;4.47;4.07;;;25.20;99.90;;;;;;5126109;27;20446;-79
2022/08/01 10:25:04;;;;;;;2.80;2.60;;;25.20;99.90;;;;;;5111922;27;20427;-78
2022/08/01 10:27:54;;;;;;;3.40;3.10;;;25.20;99.90;;;;;;5118851;27;20450;-79
2022/08/01 10:30:41;;;;;;;3.40;3.20;;;25.10;99.90;;;;;;5106993;27;20430;-80
2022/08/01 10:33:26;;;;;;;4.73;3.33;;;24.90;99.90;;;;;;5105158;28;20549;-80
2022/08/01 10:36:11;;;;;;;7.07;3.83;;;24.80;99.90;;;;;;5103273;28;20502;-80
2022/08/01 10:38:56;;;;;;;3.73;3.30;;;24.90;99.90;;;;;;5116723;27;20434;-82
2022/08/01 10:41:40;;;;;;;3.73;3.43;;;24.90;99.90;;;;;;5116479;27;20483;-81
2022/08/01 10:44:27;;;;;;;3.87;3.47;;;25.00;99.90;;;;;;5102714;27;20462;-80
2022/08/01 10:47:18;;;;;;;3.67;3.07;;;25.20;99.90;;;;;;5116039;27;20430;-81
2022/08/01 10:50:11;;;;;;;3.53;3.23;;;25.50;99.90;;;;;;5095221;27;20431;-80
2022/08/01 10:53:12;;;;;;;4.97;3.37;;;26.00;99.90;;;;;;5094743;27;20767;-82
2022/08/01 10:56:01;;;;;;;3.60;3.30;;;26.20;99.90;;;;;;5121138;27;20549;-82
2022/08/01 10:58:47;;;;;;;2.80;2.50;;;26.50;99.90;;;;;;5106059;27;20426;-82
2022/08/01 11:01:32;;;;;;;3.20;2.97;;;26.40;99.90;;;;;;5113964;27;20489;-82
2022/08/01 11:04:18;;;;;;;4.00;3.60;;;26.20;99.90;;;;;;5113618;27;20535;-80
2022/08/01 11:07:04;;;;;;;3.57;3.27;;;26.10;99.90;;;;;;5086873;28;20418;-81
2022/08/01 11:10:03;;;;;;;2.97;2.77;;;25.90;99.90;;;;;;5117524;27;20538;-82
2022/08/01 11:12:47;;;;;;;4.13;2.57;;;25.80;99.90;;;;;;5085619;27;20777;-83
2022/08/01 11:15:32;;;;;;;2.63;2.50;;;25.80;99.90;;;;;;5107196;28;20506;-81
2022/08/01 11:18:32;;;;;;;2.53;2.33;;;25.70;99.90;;;;;;5104047;28;20505;-81
2022/08/01 11:21:18;;;;;;;2.87;2.67;;;25.40;99.90;;;;;;5115293;27;20937;-80
2022/08/01 11:24:03;;;;;;;2.83;2.63;;;25.60;99.90;;;;;;5084254;28;20498;-81
2022/08/01 11:27:24;;;;;;;3.80;3.00;;;25.70;99.90;;;;;;5081195;28;20413;-81
2022/08/01 11:30:26;;;;;;;2.63;2.43;;;25.70;99.90;;;;;;5111837;28;20457;-82
2022/08/01 11:33:12;;;;;;;2.97;2.77;;;26.00;99.90;;;;;;5098141;28;20415;-80
2022/08/01 11:36:17;;;;;;;3.63;3.43;;;26.30;99.90;;;;;;5115741;27;20449;-81
2022/08/01 11:39:14;;;;;;;3.33;2.70;;;26.70;99.90;;;;;;5103890;27;20480;-82
2022/08/01 11:42:18;;;;;;;3.23;3.03;;;26.80;99.90;;;;;;5106422;28;20476;-81
2022/08/01 11:45:03;;;;;;;2.43;2.30;;;27.10;99.90;;;;;;5085136;28;20934;-81
2022/08/01 11:47:49;;;;;;;2.77;2.57;;;27.20;99.90;;;;;;5100655;28;21063;-81
2022/08/01 11:50:36;;;;;;;2.50;2.27;;;27.10;99.90;;;;;;5119852;27;20410;-80
2022/08/01 11:53:21;;;;;;;3.47;2.90;;;26.70;99.90;;;;;;5093370;28;20575;-81
2022/08/01 11:56:07;;;;;;;2.73;2.53;;;26.40;99.90;;;;;;5117561;27;20461;-80
2022/08/01 11:58:59;;;;;;;2.80;2.60;;;26.30;99.90;;;;;;5116909;27;20511;-80
2022/08/01 12:01:44;;;;;;;3.40;3.00;;;26.10;99.90;;;;;;5113237;27;20421;-82
2022/08/01 12:04:46;;;;;;;3.40;2.43;;;26.10;99.90;;;;;;5096265;28;20446;-80
2022/08/01 12:07:32;;;;;;;3.73;2.50;;;26.30;99.90;;;;;;5117137;27;20476;-81
2022/08/01 12:10:19;;;;;;;2.60;2.40;;;26.90;99.90;;;;;;5100400;28;20433;-81
2022/08/01 12:13:05;;;;;;;2.70;2.50;;;26.90;99.90;;;;;;5101720;28;20476;-82
2022/08/01 12:15:50;;;;;;;3.23;3.03;;;26.80;99.90;;;;;;5108153;28;20473;-82
2022/08/01 12:18:43;;;;;;;2.47;2.30;;;26.40;99.90;;;;;;5115730;28;20829;-81
2022/08/01 12:21:27;;;;;;;7.73;2.30;;;26.30;99.90;;;;;;5113775;28;20422;-81
2022/08/01 12:24:12;;;;;;;3.10;2.67;;;26.60;99.90;;;;;;5093400;28;20425;-81
2022/08/01 12:26:56;;;;;;;2.10;2.00;;;26.70;99.90;;;;;;5108068;28;20776;-81
2022/08/01 12:29:43;;;;;;;2.70;1.93;;;27.20;99.90;;;;;;5109190;28;20414;-81
2022/08/01 12:32:31;;;;;;;2.40;2.20;;;27.00;99.90;;;;;;5114667;28;20552;-79
2022/08/01 12:35:20;;;;;;;2.23;2.03;;;26.50;99.90;;;;;;5117191;28;20564;-79
2022/08/01 12:38:07;;;;;;;3.93;2.20;;;26.20;99.90;;;;;;5102983;28;20567;-80
2022/08/01 12:40:52;;;;;;;2.23;2.13;;;26.10;99.90;;;;;;5111036;28;20429;-79
2022/08/01 12:43:37;;;;;;;2.20;2.10;;;26.40;99.90;;;;;;5123609;28;20418;-78
2022/08/01 12:46:21;;;;;;;3.97;3.17;;;26.40;99.90;;;;;;5110822;28;20976;-79
2022/08/01 12:49:06;;;;;;;2.80;2.60;;;26.20;99.90;;;;;;5126136;28;20475;-82
2022/08/01 12:51:51;;;;;;;2.83;2.63;;;26.00;99.90;;;;;;5116003;28;20480;-81
2022/08/01 12:54:57;;;;;;;4.00;3.07;;;25.90;99.90;;;;;;5099574;28;20430;-80
2022/08/01 12:57:44;;;;;;;3.00;2.70;;;25.80;99.90;;;;;;5112000;28;20540;-81
2022/08/01 13:00:30;;;;;;;3.13;2.93;;;25.80;99.90;;;;;;5121255;28;20503;-81
2022/08/01 13:03:17;;;;;;;3.27;3.00;;;25.70;99.90;;;;;;5121176;28;20766;-81
2022/08/01 13:06:14;;;;;;;2.73;2.53;;;25.60;99.90;;;;;;5114925;28;20430;-82
2022/08/01 13:09:07;;;;;;;6.33;3.20;;;25.70;99.90;;;;;;5111490;28;20522;-81
2022/08/01 13:11:53;;;;;;;2.83;2.57;;;25.60;99.90;;;;;;5120329;28;20537;-81
2022/08/01 13:14:37;;;;;;;2.60;2.40;;;25.80;99.90;;;;;;5116768;28;20417;-83
2022/08/01 13:17:38;;;;;;;2.37;2.17;;;27.00;99.90;;;;;;5114289;28;20599;-81
2022/08/01 13:20:26;;;;;;;2.77;2.57;;;27.10;99.90;;;;;;5113333;28;20540;-81
2022/08/01 13:23:17;;;;;;;2.93;2.73;;;26.80;99.90;;;;;;5123455;27;20410;-81
2022/08/01 13:26:02;;;;;;;2.90;2.70;;;27.20;99.90;;;;;;5103414;28;20548;-82
2022/08/01 13:29:05;;;;;;;2.63;2.43;;;27.90;99.90;;;;;;5099336;28;20411;-81
2022/08/01 13:31:50;;;;;;;2.77;2.57;;;27.80;99.90;;;;;;5120990;27;20451;-82
2022/08/01 13:34:34;;;;;;;2.37;2.20;;;28.20;99.90;;;;;;5090444;28;20418;-81
2022/08/01 13:37:19;;;;;;;2.83;2.60;;;28.30;99.90;;;;;;5122497;27;20476;-79
2022/08/01 13:40:03;;;;;;;2.90;2.07;;;28.60;99.90;;;;;;5108576;27;20416;-82
2022/08/01 13:42:47;;;;;;;2.50;2.30;;;28.40;99.90;;;;;;5119272;27;20456;-80
2022/08/01 13:45:33;;;;;;;2.58;2.38;;;29.80;99.90;;;;;;5119434;27;20226;-81
2022/08/01 13:48:18;;;;;;;2.65;2.38;;;30.00;99.90;;;;;;5119062;27;20203;-80
2022/08/01 13:51:02;;;;;;;2.78;2.58;;;28.50;99.90;;;;;;5116842;27;20211;-79
2022/08/01 13:53:47;;;;;;;3.13;2.35;;;28.60;99.90;;;;;;5109160;27;20685;-80
2022/08/01 13:56:32;;;;;;;7.25;2.38;;;28.50;99.90;;;;;;5115023;27;20281;-80
2022/08/01 13:59:16;;;;;;;4.00;3.70;;;29.10;99.90;;;;;;5119676;27;20196;-82
2022/08/01 14:02:00;;;;;;;1.90;1.80;;;29.40;99.90;;;;;;5123428;27;20176;-80
2022/08/01 14:04:45;;;;;;;4.07;2.47;;;29.70;99.90;;;;;;5122689;27;20188;-82
2022/08/01 14:07:29;;;;;;;2.72;2.53;;;29.20;99.90;;;;;;5111706;27;20184;-81
2022/08/01 14:10:14;;;;;;;3.05;2.85;;;29.50;99.90;;;;;;5120652;27;20631;-80
2022/08/01 14:12:59;;;;;;;2.83;2.63;;;30.70;99.90;;;;;;5124800;27;20180;-82
2022/08/01 14:16:07;;;;;;;2.50;2.30;;;31.00;99.90;;;;;;5126145;28;20188;-82
2022/08/01 14:18:56;;;;;;;2.72;2.53;;;30.90;99.90;;;;;;5024722;28;20298;-82
2022/08/01 14:22:09;;;;;;;3.92;2.83;;;29.90;99.90;;;;;;4980948;28;20261;-80
2022/08/01 14:24:56;;;;;;;3.20;3.00;;;29.90;99.90;;;;;;4940008;29;20238;-81
2022/08/01 14:27:41;;;;;;;4.78;3.40;;;30.50;99.90;;;;;;4930787;29;20845;-81
2022/08/01 14:30:48;;;;;;;3.63;2.78;;;30.20;99.20;;;;;;4942852;29;20199;-81
2022/08/01 14:33:32;;;;;;;4.68;2.60;;;30.20;98.30;;;;;;4942926;29;20230;-82